Flight Track Log - Related Links

Times and Time Zones

All times are in EDT time to prevent confusion due to time zone crossing. See the LOF3416 flight status page for this flight to view local times or setup timezone preferences in your user account.

Time Position Orientation Groundspeed Altitude Reporting Facility
EDT Latitude Longitude Course Direction KTS MPH feet Rate Location/Type
Sun 05:52:54 PM 41.9333 -87.9167 166° South 167 192 1,800  Level Chicago TRACON
Sun 05:53:54 PM 41.8833 -87.9000 166° South 187 215 3,700 1,754 Climbing Chicago TRACON
Sun 05:55:04 PM 41.8150 -87.8936 176° South 222 255 5,600 1,818 Climbing Chicago Center
Sun 05:56:06 PM 41.7481 -87.9319 203° Southwest 267 307 7,700 1,984 Climbing Chicago Center
Sun 05:57:08 PM 41.6803 -87.9817 209° Southwest 278 320 9,700 1,742 Climbing Chicago Center
Sun 05:58:10 PM 41.6058 -88.0356 208° Southwest 303 349 11,300 1,742 Climbing Chicago Center
Sun 05:59:12 PM 41.5283 -88.0908 208° Southwest 320 368 13,300 1,344 Climbing Chicago Center
Sun 06:00:15 PM 41.4292 -88.1622 208° Southwest 360 414 14,100 864 Climbing Chicago Center
Sun 06:01:17 PM 41.3328 -88.2142 202° Southwest 385 443 15,100 968 Climbing Chicago Center
Sun 06:02:19 PM 41.2303 -88.2592 198° South 392 451 16,100 1,056 Climbing Chicago Center
Sun 06:03:22 PM 41.1053 -88.3150 199° South 395 455 17,300 1,113 Climbing Chicago Center
Sun 06:04:23 PM 40.9986 -88.3639 199° South 404 465 18,400 1,024 Climbing Chicago Center
Sun 06:05:25 PM 40.8900 -88.4114 198° South 411 473 19,400 968 Climbing Chicago Center
Sun 06:06:27 PM 40.7808 -88.4614 199° South 417 480 20,400 960 Climbing Chicago Center
Sun 06:07:30 PM 40.6703 -88.5100 198° South 420 483 21,400 1,104 Climbing Chicago Center
Sun 06:08:32 PM 40.5367 -88.5700 199° South 425 489 22,700 1,065 Climbing Chicago Center
Sun 06:09:34 PM 40.4419 -88.6114 198° South 423 487 23,600 1,016 Climbing Chicago Center
Sun 06:10:36 PM 40.3225 -88.7011 210° Southwest 413 475 24,800 1,065 Climbing Chicago Center
Sun 06:11:38 PM 40.2475 -88.8169 230° Southwest 416 479 25,800 581 Climbing Chicago Center
Sun 06:12:40 PM 40.1747 -88.9350 231° Southwest 417 480 26,000 97 Climbing Chicago Center
Sun 06:13:42 PM 40.0978 -89.0611 231° Southwest 437 503 26,000  Level Chicago Center
Sun 06:14:33 PM 40.0319 -89.1653 230° Southwest 449 517 26,000  Level Kansas City Center
Sun 06:15:35 PM 39.9497 -89.2975 231° Southwest 460 529 26,000  Level Kansas City Center
Sun 06:16:37 PM 39.8672 -89.4331 232° Southwest 470 541 26,000  Level Kansas City Center
Sun 06:17:39 PM 39.7664 -89.5944 231° Southwest 475 547 26,000  Level Kansas City Center
Sun 06:18:41 PM 39.6825 -89.7286 231° Southwest 477 549 26,000 387 Level Kansas City Center
Sun 06:19:43 PM 39.6017 -89.8597 231° Southwest 473 544 26,800 871 Climbing Kansas City Center
Sun 06:20:45 PM 39.5219 -89.9839 230° Southwest 458 527 27,800 581 Climbing Kansas City Center
Sun 06:21:47 PM 39.4442 -90.1072 231° Southwest 447 514 28,000 97 Climbing Kansas City Center
Sun 06:22:49 PM 39.3628 -90.2331 230° Southwest 453 521 28,000  Level Kansas City Center
Sun 06:23:51 PM 39.2689 -90.3825 231° Southwest 451 519 28,000  Level Kansas City Center
Sun 06:24:52 PM 39.1908 -90.5044 230° Southwest 446 513 28,000  Level Kansas City Center
Sun 06:25:54 PM 39.1139 -90.6239 230° Southwest 440 506 28,000  Level Kansas City Center
Sun 06:26:56 PM 39.0367 -90.7422 230° Southwest 437 503 28,000  Level Kansas City Center
Sun 06:27:58 PM 38.9564 -90.8678 231° Southwest 454 522 28,000  Level Kansas City Center
Sun 06:29:00 PM 38.8578 -91.0178 230° Southwest 462 532 28,000  Level Kansas City Center
Sun 06:30:02 PM 38.7758 -91.1433 230° Southwest 462 532 28,000  Level Kansas City Center
Sun 06:31:04 PM 38.6942 -91.2678 230° Southwest 462 532 28,000  Level Kansas City Center
Sun 06:32:06 PM 38.6036 -91.4050 230° Southwest 464 534 28,000 -387 Level Kansas City Center
Sun 06:33:08 PM 38.5217 -91.5275 229° Southwest 457 526 27,200 -871 Descending Kansas City Center
Sun 06:34:10 PM 38.4411 -91.6483 230° Southwest 448 516 26,200 -968 Descending Kansas City Center
Sun 06:35:12 PM 38.3597 -91.7700 230° Southwest 449 517 25,200 -968 Descending Kansas City Center
Sun 06:36:14 PM 38.2778 -91.8894 229° Southwest 449 517 24,200 -1,016 Descending Kansas City Center
Sun 06:37:16 PM 38.1794 -92.0356 229° Southwest 451 519 23,100 -968 Descending Kansas City Center
Sun 06:38:18 PM 38.1067 -92.1436 229° Southwest 452 520 22,200 -919 Descending Kansas City Center
Sun 06:39:20 PM 38.0256 -92.2622 229° Southwest 450 518 21,200 -1,065 Descending Kansas City Center
Sun 06:40:22 PM 37.9283 -92.4033 229° Southwest 448 516 20,000 -1,016 Descending Kansas City Center
Sun 06:41:24 PM 37.8519 -92.5144 229° Southwest 434 499 19,100 -968 Descending Kansas City Center
Sun 06:42:26 PM 37.7811 -92.6219 230° Southwest 408 470 18,000 -1,548 Descending Kansas City Center
Sun 06:43:28 PM 37.7086 -92.7261 229° Southwest 400 460 15,900 -2,371 Descending Kansas City Center
Sun 06:44:30 PM 37.6358 -92.8311 229° Southwest 391 450 13,100 -2,806 Descending Kansas City Center
Sun 06:45:32 PM 37.5706 -92.9253 229° Southwest 374 430 10,100 -2,323 Descending Kansas City Center
Sun 06:46:34 PM 37.5169 -93.0253 236° Southwest 313 360 8,300 -1,645 Descending Kansas City Center
Sun 06:47:36 PM 37.4775 -93.1017 237° Southwest 281 323 6,700 -1,839 Descending Kansas City Center
Sun 06:48:38 PM 37.4414 -93.1694 236° Southwest 252 290 4,500 -1,790 Descending Kansas City Center
Sun 06:49:40 PM 37.4039 -93.2425 237° Southwest 246 283 3,000 -726 Descending Kansas City Center
Sun 06:50:42 PM 37.3675 -93.3125 237° Southwest 243 280 3,000 -48 Level Kansas City Center
Sun 06:51:44 PM 37.3228 -93.3461 211° Southwest 208 239 2,900 -435 Descending Kansas City Center
Sun 06:52:46 PM 37.2856 -93.3664 203° Southwest 170 196 2,100 -774 Descending Kansas City Center
Sun 06:54:00 PM 37.2457 -93.3886 219° Southwest  Level Estimated
Sun 07:01:00 PM 37.2457 -93.3886 219° Southwest  Level Estimated
Sun 07:02:00 PM 37.2457 -93.3886 219° Southwest  Level Estimated
Sun 07:03:00 PM 37.2457 -93.3886 219° Southwest  Level Estimated

Login

Don't have an account? Register now (free) for customized features, flight alerts, and more!